Terminal Aerodrome Forecast
Issued by NWS Newport/Morehead City, NC

Home | Current Version | Previous Version | Graphics & Text | Print | Product List | Glossary On
Versions: 1 2 3 4 5 6 7 8 9 10 11 12 13
000
FTUS42 KMHX 281732
TAFEWN
TAF
KEWN 281732Z 2818/2918 VRB06KT P6SM FEW060
     FM290800 00000KT 5SM BR SKC
     FM291100 VRB03KT P6SM SKC
     FM291600 14006KT P6SM FEW050=

USA.gov is the U.S. government's official web portal to all federal, state and local government web resources and services.